createdAt,value
2019-02-10T00:00:14.115Z,9.59
2019-02-10T00:02:46.328Z,9.57
2019-02-10T00:05:18.252Z,9.56
2019-02-10T00:07:50.240Z,9.53
2019-02-10T00:10:23.165Z,9.52
2019-02-10T00:13:33.746Z,9.48
2019-02-10T00:16:15.753Z,9.43
2019-02-10T00:18:47.682Z,9.38
2019-02-10T00:21:19.597Z,9.36
2019-02-10T00:23:51.621Z,9.33
2019-02-10T00:26:23.536Z,9.33
2019-02-10T00:28:55.465Z,9.29
2019-02-10T00:31:27.377Z,9.26
2019-02-10T00:33:59.307Z,9.26
2019-02-10T00:36:33.234Z,9.23
2019-02-10T00:39:07.693Z,9.23
2019-02-10T00:41:39.623Z,9.21
2019-02-10T00:44:11.541Z,9.20
2019-02-10T00:46:43.493Z,9.18
2019-02-10T00:49:15.400Z,9.17
2019-02-10T00:51:47.606Z,9.14
2019-02-10T00:54:19.531Z,9.09
2019-02-10T00:56:51.584Z,9.06
2019-02-10T00:59:23.516Z,9.01
2019-02-10T01:01:55.426Z,8.96
2019-02-10T01:04:27.396Z,8.94
2019-02-10T01:06:59.298Z,8.90
2019-02-10T01:09:31.579Z,8.87
2019-02-10T01:12:03.638Z,8.85
2019-02-10T01:14:35.572Z,8.83
2019-02-10T01:17:07.582Z,8.79
2019-02-10T01:19:39.522Z,8.76
2019-02-10T01:22:11.493Z,8.73
2019-02-10T01:24:43.421Z,8.71
2019-02-10T01:27:15.353Z,8.68
2019-02-10T01:29:47.305Z,8.65
2019-02-10T01:32:19.284Z,8.63
2019-02-10T01:34:51.275Z,8.61
2019-02-10T01:37:23.300Z,8.59
2019-02-10T01:39:55.377Z,8.56
2019-02-10T01:42:27.301Z,8.55
2019-02-10T01:44:59.287Z,8.53
2019-02-10T01:47:31.384Z,8.52
2019-02-10T01:50:03.913Z,8.50
2019-02-10T01:52:35.889Z,8.49
2019-02-10T01:55:13.944Z,8.46
2019-02-10T01:57:46.345Z,8.43
2019-02-10T02:00:18.816Z,8.41
2019-02-10T02:02:50.820Z,8.41
2019-02-10T02:05:22.750Z,8.39
2019-02-10T02:07:54.758Z,8.38
2019-02-10T02:10:26.983Z,8.38
2019-02-10T02:12:58.896Z,8.37
2019-02-10T02:15:30.820Z,8.37
2019-02-10T02:18:02.811Z,8.36
2019-02-10T02:20:34.731Z,8.34
2019-02-10T02:23:06.895Z,8.32
2019-02-10T02:25:38.822Z,8.31
2019-02-10T02:28:10.729Z,8.29
2019-02-10T02:30:42.930Z,8.29
2019-02-10T02:33:14.846Z,8.29
2019-02-10T02:35:46.843Z,8.29
2019-02-10T02:38:18.756Z,8.26
2019-02-10T02:40:50.676Z,8.25
2019-02-10T02:43:22.592Z,8.27
2019-02-10T02:45:54.606Z,8.27
2019-02-10T02:48:26.545Z,8.32
2019-02-10T02:50:58.477Z,8.35
2019-02-10T02:53:30.395Z,8.37
2019-02-10T02:56:02.309Z,8.40
2019-02-10T02:58:34.230Z,8.44
2019-02-10T03:01:06.204Z,8.46
2019-02-10T03:03:38.200Z,8.46
2019-02-10T03:06:10.116Z,8.49
2019-02-10T03:08:42.061Z,8.49
2019-02-10T03:11:13.965Z,8.48
2019-02-10T03:13:45.900Z,8.47
2019-02-10T03:16:17.823Z,8.45
2019-02-10T03:18:53.138Z,8.42
2019-02-10T03:21:23.373Z,8.39
2019-02-10T03:23:55.361Z,8.36
2019-02-10T03:26:27.284Z,8.32
2019-02-10T03:28:59.196Z,8.30
2019-02-10T03:31:31.123Z,8.27
2019-02-10T03:34:03.046Z,8.26
2019-02-10T03:36:34.975Z,8.24
2019-02-10T03:39:07.361Z,8.21
2019-02-10T03:41:39.297Z,8.19
2019-02-10T03:44:11.213Z,8.16
2019-02-10T03:46:43.147Z,8.14
2019-02-10T03:49:15.132Z,8.15
2019-02-10T03:51:47.053Z,8.14
2019-02-10T03:54:18.983Z,8.18
2019-02-10T03:56:50.987Z,8.20
2019-02-10T03:59:23.091Z,8.23
2019-02-10T04:01:55.433Z,8.24
2019-02-10T04:04:27.373Z,8.25
2019-02-10T04:06:59.352Z,8.28
2019-02-10T04:09:31.551Z,8.27
2019-02-10T04:12:03.462Z,8.27
2019-02-10T04:14:35.407Z,8.28
2019-02-10T04:17:07.372Z,8.30
2019-02-10T04:19:39.305Z,8.29
2019-02-10T04:22:11.226Z,8.30
2019-02-10T04:24:43.149Z,8.29
2019-02-10T04:27:15.075Z,8.29
2019-02-10T04:29:47.098Z,8.29
2019-02-10T04:32:19.006Z,8.28
2019-02-10T04:34:50.942Z,8.26
2019-02-10T04:37:22.853Z,8.26
2019-02-10T04:39:54.792Z,8.26
2019-02-10T04:42:26.715Z,8.25
2019-02-10T04:44:58.644Z,8.23
2019-02-10T04:47:30.630Z,8.22
2019-02-10T04:50:02.596Z,8.21
2019-02-10T04:52:34.506Z,8.20
2019-02-10T04:55:08.278Z,8.17
2019-02-10T04:57:40.197Z,8.15
2019-02-10T05:00:12.489Z,8.13
2019-02-10T05:02:44.592Z,8.11
2019-02-10T05:05:16.604Z,8.10
2019-02-10T05:07:54.233Z,8.09
2019-02-10T05:10:22.334Z,8.06
2019-02-10T05:12:55.134Z,8.06
2019-02-10T05:15:27.215Z,8.04
2019-02-10T05:17:59.147Z,8.03
2019-02-10T05:20:31.432Z,8.02
2019-02-10T05:23:03.434Z,8.01
2019-02-10T05:25:35.345Z,8.03
2019-02-10T05:28:08.902Z,8.03
2019-02-10T05:30:40.978Z,8.03
2019-02-10T05:33:12.976Z,8.03
2019-02-10T05:35:44.971Z,8.02
2019-02-10T05:38:17.003Z,8.02
2019-02-10T05:40:48.957Z,8.02
2019-02-10T05:43:21.272Z,8.02
2019-02-10T05:45:53.777Z,8.03
2019-02-10T05:48:25.697Z,8.04
2019-02-10T05:50:57.709Z,8.03
2019-02-10T05:53:29.793Z,8.04
2019-02-10T05:56:01.790Z,8.05
2019-02-10T05:58:33.700Z,8.04
2019-02-10T06:01:55.953Z,8.03
2019-02-10T06:04:28.270Z,8.00
2019-02-10T06:07:04.558Z,8.00
2019-02-10T06:09:36.741Z,8.00
2019-02-10T06:12:08.738Z,8.01
2019-02-10T06:14:40.650Z,8.02
2019-02-10T06:17:12.579Z,8.01
2019-02-10T06:19:44.522Z,8.01
2019-02-10T06:22:16.506Z,8.02
2019-02-10T06:24:48.429Z,8.03
2019-02-10T06:27:20.353Z,8.02
2019-02-10T06:29:52.272Z,8.01
2019-02-10T06:32:24.201Z,8.02
2019-02-10T06:34:56.185Z,8.02
2019-02-10T06:37:28.131Z,8.04
2019-02-10T06:40:00.339Z,8.06
2019-02-10T06:42:32.399Z,8.09
2019-02-10T06:45:06.889Z,8.09
2019-02-10T06:47:38.901Z,8.11
2019-02-10T06:50:11.802Z,8.13
2019-02-10T06:52:43.720Z,8.16
2019-02-10T06:55:15.643Z,8.16
2019-02-10T06:57:47.561Z,8.17
2019-02-10T07:00:33.441Z,8.20
2019-02-10T07:03:33.628Z,8.21
2019-02-10T07:06:07.504Z,8.20
2019-02-10T07:08:40.915Z,8.22
2019-02-10T07:11:13.089Z,8.23
2019-02-10T07:13:52.342Z,8.24
2019-02-10T07:16:40.610Z,8.24
2019-02-10T07:20:06.978Z,8.23
2019-02-10T07:22:43.517Z,8.23
2019-02-10T07:25:20.130Z,8.24
2019-02-10T07:28:06.955Z,8.26
2019-02-10T07:31:02.804Z,8.27
2019-02-10T07:33:51.203Z,8.27
2019-02-10T07:36:33.611Z,8.27
2019-02-10T07:39:27.815Z,8.28
2019-02-10T07:42:25.200Z,8.30
2019-02-10T07:45:13.748Z,8.31
2019-02-10T07:47:58.325Z,8.32
2019-02-10T07:50:46.983Z,8.35
2019-02-10T07:53:44.458Z,8.35
2019-02-10T07:56:44.733Z,8.38
2019-02-10T07:59:36.164Z,8.38
2019-02-10T08:02:21.278Z,8.38
2019-02-10T08:05:21.988Z,8.41
2019-02-10T08:08:13.189Z,8.42
2019-02-10T08:11:16.569Z,8.44
2019-02-10T08:14:04.592Z,8.46
2019-02-10T08:17:00.649Z,8.46
2019-02-10T08:19:54.799Z,8.46
2019-02-10T08:23:05.772Z,8.50
2019-02-10T08:26:16.712Z,8.51
2019-02-10T08:29:21.764Z,8.50
2019-02-10T08:32:13.847Z,8.51
2019-02-10T08:34:59.109Z,8.50
2019-02-10T08:38:14.351Z,8.50
2019-02-10T08:41:13.480Z,8.47
2019-02-10T08:44:26.468Z,8.46
2019-02-10T08:47:14.645Z,8.45
2019-02-10T08:50:09.575Z,8.48
2019-02-10T08:52:51.940Z,8.47
2019-02-10T08:55:22.331Z,8.48
2019-02-10T08:57:54.311Z,8.49
2019-02-10T09:00:26.228Z,8.48
2019-02-10T09:02:58.206Z,8.50
2019-02-10T09:05:30.123Z,8.51
2019-02-10T09:08:02.035Z,8.53
2019-02-10T09:10:33.960Z,8.54
2019-02-10T09:13:06.154Z,8.54
2019-02-10T09:15:38.072Z,8.54
2019-02-10T09:18:09.989Z,8.54
2019-02-10T09:20:41.903Z,8.56
2019-02-10T09:23:13.888Z,8.57
2019-02-10T09:25:45.795Z,8.57
2019-02-10T09:28:17.716Z,8.59
2019-02-10T09:30:49.632Z,8.58
2019-02-10T09:33:21.554Z,8.56
2019-02-10T09:35:53.482Z,8.56
2019-02-10T09:38:25.480Z,8.54
2019-02-10T09:40:57.664Z,8.55
2019-02-10T09:43:29.590Z,8.57
2019-02-10T09:46:01.507Z,8.57
2019-02-10T09:48:33.415Z,8.58
2019-02-10T09:51:05.330Z,8.58
2019-02-10T09:53:37.244Z,8.59
2019-02-10T09:56:10.627Z,8.60
2019-02-10T09:58:42.851Z,8.59
2019-02-10T10:01:14.891Z,8.58
2019-02-10T10:03:47.179Z,8.57
2019-02-10T10:06:19.100Z,8.56
2019-02-10T10:08:51.026Z,8.56
2019-02-10T10:11:22.931Z,8.58
2019-02-10T10:13:55.134Z,8.61
2019-02-10T10:16:27.045Z,8.62
2019-02-10T10:18:59.522Z,8.60
2019-02-10T10:21:31.436Z,8.59
2019-02-10T10:24:03.422Z,8.58
2019-02-10T10:26:35.327Z,8.57
2019-02-10T10:29:07.248Z,8.56
2019-02-10T10:31:39.497Z,8.52
2019-02-10T10:34:11.750Z,8.52
2019-02-10T10:36:43.731Z,8.52
2019-02-10T10:39:15.949Z,8.51
2019-02-10T10:41:47.864Z,8.53
2019-02-10T10:44:19.801Z,8.53
2019-02-10T10:46:51.708Z,8.52
2019-02-10T10:49:23.629Z,8.50
2019-02-10T10:51:55.559Z,8.49
2019-02-10T10:54:27.516Z,8.51
2019-02-10T10:56:59.424Z,8.50
2019-02-10T10:59:31.341Z,8.51
2019-02-10T11:02:03.257Z,8.52
2019-02-10T11:04:35.165Z,8.51
2019-02-10T11:07:07.393Z,8.51
2019-02-10T11:09:39.303Z,8.51
2019-02-10T11:12:12.870Z,8.51
2019-02-10T11:14:44.859Z,8.50
2019-02-10T11:17:16.781Z,8.49
2019-02-10T11:19:48.696Z,8.50
2019-02-10T11:22:20.608Z,8.48
2019-02-10T11:24:52.538Z,8.47
2019-02-10T11:27:24.441Z,8.46
2019-02-10T11:29:56.380Z,8.47
2019-02-10T11:32:28.578Z,8.49
2019-02-10T11:35:00.512Z,8.51
2019-02-10T11:37:32.424Z,8.54
2019-02-10T11:40:07.519Z,8.57
2019-02-10T11:42:39.540Z,8.58
2019-02-10T11:45:15.965Z,8.61
2019-02-10T11:47:47.889Z,8.66
2019-02-10T11:50:20.093Z,8.66
2019-02-10T11:52:52.008Z,8.68
2019-02-10T11:55:24.281Z,8.71
2019-02-10T11:57:56.265Z,8.73
2019-02-10T12:00:28.167Z,8.74
2019-02-10T12:03:00.079Z,8.77
2019-02-10T12:05:31.985Z,8.77
2019-02-10T12:08:03.906Z,8.77
2019-02-10T12:10:35.815Z,8.78
2019-02-10T12:13:07.799Z,8.78
2019-02-10T12:15:39.699Z,8.81
2019-02-10T12:18:11.610Z,8.82
2019-02-10T12:20:43.538Z,8.82
2019-02-10T12:23:15.514Z,8.83
2019-02-10T12:25:47.428Z,8.83
2019-02-10T12:28:19.335Z,8.85
2019-02-10T12:30:51.409Z,8.86
2019-02-10T12:33:23.315Z,8.87
2019-02-10T12:35:58.256Z,8.88
2019-02-10T12:38:28.872Z,8.89
2019-02-10T12:41:00.858Z,8.91
2019-02-10T12:43:33.041Z,8.89
2019-02-10T12:46:04.941Z,8.89
2019-02-10T12:48:36.874Z,8.89
2019-02-10T12:51:08.845Z,8.91
2019-02-10T12:53:40.830Z,8.91
2019-02-10T12:56:12.730Z,8.93
2019-02-10T12:58:44.644Z,8.92
2019-02-10T13:01:16.828Z,8.91
2019-02-10T13:03:48.739Z,8.92
2019-02-10T13:06:20.733Z,8.91
2019-02-10T13:08:52.639Z,8.91
2019-02-10T13:11:24.558Z,8.91
2019-02-10T13:13:56.463Z,8.93
2019-02-10T13:16:28.380Z,8.94
2019-02-10T13:19:00.296Z,8.93
2019-02-10T13:21:32.264Z,8.95
2019-02-10T13:24:05.177Z,8.95
2019-02-10T13:26:37.180Z,8.92
2019-02-10T13:29:09.093Z,8.90
2019-02-10T13:31:41.426Z,8.91
2019-02-10T13:34:13.789Z,8.92
2019-02-10T13:36:45.695Z,8.92
2019-02-10T13:39:17.712Z,8.92
2019-02-10T13:41:47.981Z,8.90
2019-02-10T13:44:20.313Z,8.91
2019-02-10T13:46:52.242Z,8.91
2019-02-10T13:49:24.233Z,8.93
2019-02-10T13:51:56.152Z,8.94
2019-02-10T13:54:28.054Z,8.93
2019-02-10T13:56:59.988Z,8.95
2019-02-10T13:59:32.423Z,8.96
2019-02-10T14:02:04.350Z,8.96
2019-02-10T14:04:36.260Z,8.96
2019-02-10T14:07:08.177Z,8.95
2019-02-10T14:09:40.078Z,8.95
2019-02-10T14:12:11.991Z,8.96
2019-02-10T14:14:44.372Z,8.95
2019-02-10T14:17:16.270Z,8.96
2019-02-10T14:19:48.183Z,8.96
2019-02-10T14:22:20.087Z,8.97
2019-02-10T14:24:51.995Z,8.96
2019-02-10T14:27:24.038Z,8.97
2019-02-10T14:29:56.433Z,9.00
2019-02-10T14:32:28.456Z,9.02
2019-02-10T14:35:00.417Z,9.03
2019-02-10T14:37:32.362Z,9.01
2019-02-10T14:40:05.332Z,8.99
2019-02-10T14:42:37.306Z,8.99
2019-02-10T14:45:13.679Z,8.99
2019-02-10T14:47:45.732Z,9.00
2019-02-10T14:50:19.074Z,9.02
2019-02-10T14:52:50.949Z,9.03
2019-02-10T14:55:22.934Z,9.02
2019-02-10T14:57:54.862Z,9.01
2019-02-10T15:00:26.930Z,9.02
2019-02-10T15:02:58.855Z,9.03
2019-02-10T15:05:30.777Z,9.03
2019-02-10T15:08:02.714Z,9.03
2019-02-10T15:10:41.824Z,9.05
2019-02-10T15:13:08.963Z,9.07
2019-02-10T15:15:40.967Z,9.07
2019-02-10T15:18:13.607Z,9.09
2019-02-10T15:20:45.527Z,9.10
2019-02-10T15:23:17.452Z,9.11
2019-02-10T15:25:49.459Z,9.12
2019-02-10T15:28:21.392Z,9.12
2019-02-10T15:30:53.651Z,9.13
2019-02-10T15:33:25.594Z,9.13
2019-02-10T15:35:57.498Z,9.11
2019-02-10T15:38:29.410Z,9.11
2019-02-10T15:41:01.603Z,9.12
2019-02-10T15:43:33.526Z,9.13
2019-02-10T15:46:05.451Z,9.13
2019-02-10T15:48:37.370Z,9.13
2019-02-10T15:51:09.274Z,9.14
2019-02-10T15:53:41.201Z,9.14
2019-02-10T15:56:13.125Z,9.16
2019-02-10T15:58:45.598Z,9.17
2019-02-10T16:01:17.513Z,9.19
2019-02-10T16:03:49.756Z,9.20
2019-02-10T16:06:21.737Z,9.22
2019-02-10T16:08:53.638Z,9.23
2019-02-10T16:11:26.232Z,9.24
2019-02-10T16:13:58.136Z,9.24
2019-02-10T16:16:30.054Z,9.26
2019-02-10T16:19:01.962Z,9.27
2019-02-10T16:21:33.864Z,9.30
2019-02-10T16:24:05.855Z,9.32
2019-02-10T16:26:37.786Z,9.38
2019-02-10T16:29:09.694Z,9.44
2019-02-10T16:31:41.670Z,9.44
2019-02-10T16:34:14.051Z,9.47
2019-02-10T16:36:46.223Z,9.48
2019-02-10T16:39:18.141Z,9.49
2019-02-10T16:41:50.053Z,9.52
2019-02-10T16:44:22.028Z,9.51
2019-02-10T16:46:53.958Z,9.52
2019-02-10T16:49:25.864Z,9.53
2019-02-10T16:51:57.777Z,9.54
2019-02-10T16:54:29.688Z,9.56
2019-02-10T16:57:01.612Z,9.58
2019-02-10T16:59:33.605Z,9.58
2019-02-10T17:02:05.574Z,9.60
2019-02-10T17:04:37.476Z,9.61
2019-02-10T17:07:09.403Z,9.61
2019-02-10T17:09:41.574Z,9.62
2019-02-10T17:12:13.484Z,9.63
2019-02-10T17:14:45.689Z,9.64
2019-02-10T17:17:17.620Z,9.64
2019-02-10T17:19:49.594Z,9.67
2019-02-10T17:22:21.586Z,9.67
2019-02-10T17:24:53.485Z,9.69
2019-02-10T17:27:25.393Z,9.68
2019-02-10T17:29:57.307Z,9.69
2019-02-10T17:32:29.289Z,9.70
2019-02-10T17:35:01.506Z,9.70
2019-02-10T17:37:33.413Z,9.70
2019-02-10T17:40:27.774Z,9.70
2019-02-10T17:43:00.113Z,9.71
2019-02-10T17:45:32.272Z,9.71
2019-02-10T17:48:04.176Z,9.72
2019-02-10T17:50:36.535Z,9.72
2019-02-10T17:53:08.432Z,9.73
2019-02-10T17:55:40.414Z,9.73
2019-02-10T17:58:12.361Z,9.74
2019-02-10T18:00:46.069Z,9.73
2019-02-10T18:03:18.466Z,9.75
2019-02-10T18:05:50.577Z,9.75
2019-02-10T18:08:23.084Z,9.76
2019-02-10T18:10:55.410Z,9.76
2019-02-10T18:13:28.273Z,9.77
2019-02-10T18:16:01.844Z,9.78
2019-02-10T18:18:37.902Z,9.78
2019-02-10T18:21:17.195Z,9.78
2019-02-10T18:23:50.807Z,9.78
2019-02-10T18:26:30.546Z,9.78
2019-02-10T18:29:04.156Z,9.79
2019-02-10T18:31:46.408Z,9.79
2019-02-10T18:34:26.101Z,9.77
2019-02-10T18:37:11.557Z,9.78
2019-02-10T18:39:45.488Z,9.77
2019-02-10T18:42:28.409Z,9.78
2019-02-10T18:45:05.005Z,9.78
2019-02-10T18:47:41.609Z,9.78
2019-02-10T18:50:15.279Z,9.79
2019-02-10T18:52:51.737Z,9.80
2019-02-10T18:55:27.975Z,9.82
2019-02-10T19:01:01.800Z,9.82
2019-02-10T19:03:38.223Z,9.83
2019-02-10T19:06:23.648Z,9.82
2019-02-10T19:09:03.845Z,9.83
2019-02-10T19:11:35.382Z,9.83
2019-02-10T19:14:08.935Z,9.85
2019-02-10T19:16:45.122Z,9.85
2019-02-10T19:19:18.743Z,9.87
2019-02-10T19:21:52.292Z,9.88
2019-02-10T19:24:25.909Z,9.89
2019-02-10T19:27:02.515Z,9.89
2019-02-10T19:29:41.843Z,9.90
2019-02-10T19:32:31.749Z,9.90
2019-02-10T19:35:07.854Z,9.88
2019-02-10T19:37:44.327Z,9.88
2019-02-10T19:40:23.599Z,9.87
2019-02-10T19:43:03.062Z,9.87
2019-02-10T19:45:55.284Z,9.87
2019-02-10T19:48:41.049Z,9.86
2019-02-10T19:51:20.584Z,9.86
2019-02-10T19:54:06.312Z,9.86
2019-02-10T19:56:48.884Z,9.84
2019-02-10T19:59:22.419Z,9.83
2019-02-10T20:01:59.340Z,9.82
2019-02-10T20:04:41.659Z,9.79
2019-02-10T20:07:15.193Z,9.79
2019-02-10T20:09:51.678Z,9.78
2019-02-10T20:12:35.447Z,9.79
2019-02-10T20:15:11.794Z,9.78
2019-02-10T20:17:57.555Z,9.77
2019-02-10T20:20:31.122Z,9.75
2019-02-10T20:23:10.441Z,9.74
2019-02-10T20:25:59.309Z,9.73
2019-02-10T20:28:49.190Z,9.72
2019-02-10T20:31:22.760Z,9.70
2019-02-10T20:34:05.369Z,9.69
2019-02-10T20:36:50.937Z,9.70
2019-02-10T20:39:30.234Z,9.70
2019-02-10T20:42:18.830Z,9.71
2019-02-10T20:45:07.330Z,9.72
2019-02-10T20:47:50.196Z,9.71
2019-02-10T20:50:32.449Z,9.71
2019-02-10T20:53:06.309Z,9.71
2019-02-10T20:55:48.978Z,9.72
2019-02-10T20:58:28.760Z,9.72
2019-02-10T21:01:20.603Z,9.72
2019-02-10T21:04:10.329Z,9.70
2019-02-10T21:06:44.340Z,9.68
2019-02-10T21:09:21.012Z,9.67
2019-02-10T21:12:00.660Z,9.64
2019-02-10T21:14:34.210Z,9.63
2019-02-10T21:17:22.750Z,9.60
2019-02-10T21:19:59.547Z,9.57
2019-02-10T21:22:42.669Z,9.56
2019-02-10T21:25:25.169Z,9.53
2019-02-10T21:28:07.677Z,9.52
2019-02-10T21:30:57.642Z,9.51
2019-02-10T21:33:43.347Z,9.49
2019-02-10T21:36:28.907Z,9.45
2019-02-10T21:39:18.611Z,9.43
2019-02-10T21:41:52.144Z,9.40
2019-02-10T21:44:25.716Z,9.40
2019-02-10T21:47:08.498Z,9.38
2019-02-10T21:49:40.414Z,9.37
2019-02-10T21:52:12.391Z,9.35
2019-02-10T21:54:44.302Z,9.33
2019-02-10T21:57:16.287Z,9.32
2019-02-10T21:59:48.187Z,9.29
2019-02-10T22:02:20.165Z,9.27
2019-02-10T22:04:52.063Z,9.25
2019-02-10T22:07:23.978Z,9.23
2019-02-10T22:09:55.896Z,9.20
2019-02-10T22:12:27.809Z,9.20
2019-02-10T22:15:00.285Z,9.19
2019-02-10T22:17:32.201Z,9.15
2019-02-10T22:20:09.203Z,9.11
2019-02-10T22:22:41.365Z,8.89
2019-02-10T22:25:13.643Z,8.52
2019-02-10T22:27:45.581Z,8.20
2019-02-10T22:30:18.082Z,7.94
2019-02-10T22:32:49.978Z,7.78
2019-02-10T22:35:21.895Z,7.60
2019-02-10T22:37:53.814Z,7.51
2019-02-10T22:40:25.715Z,7.46
2019-02-10T22:42:57.659Z,7.39
2019-02-10T22:45:29.562Z,7.38
2019-02-10T22:48:01.821Z,7.35
2019-02-10T22:50:33.717Z,7.28
2019-02-10T22:53:05.653Z,7.09
2019-02-10T22:55:37.913Z,6.93
2019-02-10T22:58:09.865Z,6.84
2019-02-10T23:00:53.886Z,6.79
2019-02-10T23:03:25.824Z,6.73
2019-02-10T23:05:57.740Z,6.65
2019-02-10T23:08:29.646Z,6.64
2019-02-10T23:11:01.641Z,6.65
2019-02-10T23:13:33.545Z,6.65
2019-02-10T23:16:05.814Z,6.63
2019-02-10T23:18:37.706Z,6.52
2019-02-10T23:21:09.629Z,6.39
2019-02-10T23:23:41.604Z,6.29
2019-02-10T23:26:13.508Z,6.22
2019-02-10T23:28:45.503Z,6.23
2019-02-10T23:31:17.413Z,6.22
2019-02-10T23:33:49.667Z,6.15
2019-02-10T23:36:21.930Z,5.98
2019-02-10T23:38:53.848Z,5.68
2019-02-10T23:41:25.815Z,5.50
2019-02-10T23:43:57.729Z,5.36
2019-02-10T23:46:29.681Z,5.23
2019-02-10T23:49:01.644Z,5.06
2019-02-10T23:51:33.536Z,4.95
2019-02-10T23:54:05.448Z,4.84
2019-02-10T23:56:37.427Z,4.80
2019-02-10T23:59:09.338Z,4.73
